createdAt,value
2023-05-21T00:01:23.764Z,6.20
2023-05-21T00:04:07.766Z,5.53
2023-05-21T00:06:52.149Z,5.07
2023-05-21T00:09:35.137Z,6.25
2023-05-21T00:12:17.928Z,5.10
2023-05-21T00:15:01.636Z,4.95
2023-05-21T00:17:46.119Z,5.18
2023-05-21T00:20:32.358Z,5.03
2023-05-21T00:23:18.595Z,5.15
2023-05-21T00:26:01.482Z,5.03
2023-05-21T00:28:44.321Z,5.05
2023-05-21T00:31:27.124Z,5.32
2023-05-21T00:34:09.945Z,5.95
2023-05-21T00:36:55.441Z,4.93
2023-05-21T00:39:39.632Z,5.47
2023-05-21T00:42:27.347Z,5.45
2023-05-21T00:45:10.887Z,5.38
2023-05-21T00:47:55.618Z,5.53
2023-05-21T00:50:39.738Z,6.13
2023-05-21T00:53:22.686Z,5.93
2023-05-21T00:56:08.088Z,6.32
2023-05-21T00:58:52.100Z,5.97
2023-05-21T01:01:36.839Z,5.50
2023-05-21T01:07:03.303Z,6.15
2023-05-21T01:09:46.252Z,5.78
2023-05-21T01:12:32.276Z,5.80
2023-05-21T01:15:15.414Z,6.63
2023-05-21T01:17:58.453Z,5.88
2023-05-21T01:20:42.642Z,6.63
2023-05-21T01:23:27.129Z,5.75
2023-05-21T01:26:12.991Z,5.60
2023-05-21T01:28:55.912Z,5.70
2023-05-21T01:31:49.520Z,6.20
2023-05-21T01:34:43.289Z,5.90
2023-05-21T01:37:31.872Z,5.68
2023-05-21T01:40:23.684Z,5.57
2023-05-21T01:43:08.711Z,6.32
2023-05-21T01:45:55.083Z,5.78
2023-05-21T01:48:38.953Z,5.63
2023-05-21T01:51:22.030Z,6.00
2023-05-21T01:54:05.127Z,5.85
2023-05-21T01:56:50.493Z,6.13
2023-05-21T01:59:33.471Z,6.05
2023-05-21T02:02:16.684Z,5.25
2023-05-21T02:04:59.604Z,5.30
2023-05-21T02:07:43.788Z,5.43
2023-05-21T02:10:26.889Z,6.05
2023-05-21T02:13:11.146Z,5.50
2023-05-21T02:15:55.379Z,6.32
2023-05-21T02:18:39.508Z,5.40
2023-05-21T02:21:22.354Z,5.95
2023-05-21T02:24:05.795Z,5.25
2023-05-21T02:26:50.548Z,6.25
2023-05-21T02:32:17.564Z,5.25
2023-05-21T02:35:01.145Z,5.90
2023-05-21T02:37:44.864Z,5.57
2023-05-21T02:40:27.719Z,6.20
2023-05-21T02:43:10.640Z,5.75
2023-05-21T02:45:54.977Z,5.70
2023-05-21T02:48:37.927Z,5.70
2023-05-21T02:51:21.708Z,6.03
2023-05-21T02:54:05.614Z,5.28
2023-05-21T02:56:48.497Z,5.35
2023-05-21T02:59:31.467Z,5.80
2023-05-21T03:02:15.699Z,5.85
2023-05-21T03:04:58.994Z,5.75
2023-05-21T03:07:42.606Z,5.40
2023-05-21T03:10:26.826Z,6.28
2023-05-21T03:13:09.999Z,6.18
2023-05-21T03:15:56.277Z,5.80
2023-05-21T03:18:40.922Z,6.20
2023-05-21T03:21:23.847Z,4.85
2023-05-21T03:24:07.441Z,5.90
2023-05-21T03:26:50.888Z,5.72
2023-05-21T03:29:33.974Z,5.20
2023-05-21T03:32:18.607Z,5.95
2023-05-21T03:35:06.086Z,6.40
2023-05-21T03:37:49.269Z,6.57
2023-05-21T03:40:32.196Z,6.40
2023-05-21T03:43:15.337Z,6.00
2023-05-21T03:45:58.782Z,6.30
2023-05-21T03:49:02.386Z,6.68
2023-05-21T03:51:48.605Z,6.70
2023-05-21T03:54:33.713Z,7.22
2023-05-21T03:57:21.054Z,6.70
2023-05-21T04:00:06.995Z,6.43
2023-05-21T04:02:58.806Z,6.50
2023-05-21T04:05:42.880Z,6.43
2023-05-21T04:08:27.317Z,6.43
2023-05-21T04:11:10.166Z,6.35
2023-05-21T04:13:53.048Z,6.95
2023-05-21T04:16:38.699Z,7.07
2023-05-21T04:19:23.509Z,6.70
2023-05-21T04:22:06.582Z,6.32
2023-05-21T04:24:51.125Z,6.45
2023-05-21T04:27:38.165Z,6.30
2023-05-21T04:30:21.994Z,6.72
2023-05-21T04:33:05.637Z,6.45
2023-05-21T04:35:52.538Z,5.85
2023-05-21T04:38:36.973Z,7.00
2023-05-21T04:41:23.810Z,5.95
2023-05-21T04:44:08.657Z,6.57
2023-05-21T04:46:52.744Z,6.00
2023-05-21T04:49:35.959Z,5.70
2023-05-21T04:52:18.811Z,5.60
2023-05-21T04:55:01.808Z,5.40
2023-05-21T04:57:46.332Z,6.07
2023-05-21T05:00:29.188Z,6.10
2023-05-21T05:03:12.427Z,6.85
2023-05-21T05:05:55.694Z,6.82
2023-05-21T05:08:38.843Z,6.00
2023-05-21T05:11:22.458Z,6.22
2023-05-21T05:14:08.110Z,5.90
2023-05-21T05:16:51.389Z,6.13
2023-05-21T05:19:35.542Z,5.90
2023-05-21T05:22:18.609Z,6.63
2023-05-21T05:25:02.829Z,6.17
2023-05-21T05:27:45.784Z,6.25
2023-05-21T05:30:30.428Z,6.45
2023-05-21T05:33:21.985Z,5.53
2023-05-21T05:36:05.958Z,6.13
2023-05-21T05:38:48.905Z,6.15
2023-05-21T05:41:32.994Z,5.73
2023-05-21T05:44:16.123Z,5.50
2023-05-21T05:47:01.942Z,5.85
2023-05-21T05:52:27.620Z,5.43
2023-05-21T05:55:11.836Z,5.95
2023-05-21T05:57:54.769Z,5.45
2023-05-21T06:00:38.218Z,6.13
2023-05-21T06:03:23.152Z,5.32
2023-05-21T06:06:08.919Z,5.38
2023-05-21T06:08:51.833Z,5.88
2023-05-21T06:11:36.486Z,5.40
2023-05-21T06:14:19.555Z,5.38
2023-05-21T06:17:02.440Z,5.22
2023-05-21T06:19:47.538Z,5.82
2023-05-21T06:22:30.568Z,4.90
2023-05-21T06:25:13.490Z,5.55
2023-05-21T06:27:57.547Z,4.97
2023-05-21T06:30:43.499Z,5.28
2023-05-21T06:33:27.505Z,4.80
2023-05-21T06:36:12.062Z,4.97
2023-05-21T06:38:57.478Z,4.50
2023-05-21T06:41:41.067Z,4.70
2023-05-21T06:44:40.396Z,5.35
2023-05-21T06:47:38.921Z,5.60
2023-05-21T06:50:21.845Z,4.53
2023-05-21T06:53:06.393Z,5.00
2023-05-21T06:55:53.517Z,5.47
2023-05-21T06:58:51.429Z,4.80
2023-05-21T07:01:34.477Z,5.55
2023-05-21T07:04:18.295Z,5.63
2023-05-21T07:07:01.156Z,5.10
2023-05-21T07:09:45.458Z,4.97
2023-05-21T07:12:28.377Z,4.93
2023-05-21T07:15:12.473Z,4.80
2023-05-21T07:17:56.015Z,5.00
2023-05-21T07:20:38.972Z,4.80
2023-05-21T07:23:25.023Z,4.90
2023-05-21T07:26:11.336Z,5.05
2023-05-21T07:28:54.330Z,5.10
2023-05-21T07:31:37.321Z,4.85
2023-05-21T07:34:20.335Z,4.65
2023-05-21T07:37:03.204Z,4.88
2023-05-21T07:39:46.826Z,4.85
2023-05-21T07:42:33.076Z,4.90
2023-05-21T07:45:17.423Z,4.68
2023-05-21T07:48:01.221Z,4.70
2023-05-21T07:50:49.341Z,4.25
2023-05-21T07:53:33.413Z,4.72
2023-05-21T07:56:19.879Z,4.43
2023-05-21T07:59:05.129Z,4.15
2023-05-21T08:01:48.196Z,4.47
2023-05-21T08:04:32.013Z,4.60
2023-05-21T08:07:17.070Z,4.15
2023-05-21T08:10:02.155Z,4.40
2023-05-21T08:12:46.220Z,4.40
2023-05-21T08:15:30.432Z,4.30
2023-05-21T08:18:13.534Z,3.75
2023-05-21T08:21:00.370Z,4.25
2023-05-21T08:26:28.097Z,4.50
2023-05-21T08:29:13.083Z,4.55
2023-05-21T08:31:57.978Z,4.37
2023-05-21T08:34:42.111Z,4.88
2023-05-21T08:37:38.263Z,3.75
2023-05-21T08:40:55.785Z,4.72
2023-05-21T08:43:40.087Z,4.55
2023-05-21T08:46:24.942Z,4.70
2023-05-21T08:49:13.041Z,4.03
2023-05-21T08:51:56.890Z,3.80
2023-05-21T08:54:40.781Z,4.28
2023-05-21T08:57:26.693Z,4.10
2023-05-21T09:00:12.033Z,4.30
2023-05-21T09:02:56.297Z,3.75
2023-05-21T09:05:44.549Z,4.10
2023-05-21T09:08:32.671Z,4.20
2023-05-21T09:11:27.184Z,3.53
2023-05-21T09:14:14.451Z,3.67
2023-05-21T09:17:35.918Z,3.50
2023-05-21T09:20:34.371Z,3.50
2023-05-21T09:23:21.524Z,3.60
2023-05-21T09:26:11.926Z,3.83
2023-05-21T09:28:59.109Z,3.90
2023-05-21T09:31:44.813Z,3.65
2023-05-21T09:34:30.120Z,3.38
2023-05-21T09:37:23.816Z,4.05
2023-05-21T09:40:15.271Z,3.30
2023-05-21T09:43:00.667Z,3.35
2023-05-21T09:45:52.480Z,3.92
2023-05-21T09:48:37.555Z,3.60
2023-05-21T09:51:23.070Z,3.45
2023-05-21T09:54:05.977Z,3.33
2023-05-21T09:56:50.236Z,3.70
2023-05-21T09:59:39.887Z,3.50
2023-05-21T10:02:24.091Z,3.65
2023-05-21T10:05:11.478Z,3.80
2023-05-21T10:07:58.729Z,3.80
2023-05-21T10:10:44.203Z,3.20
2023-05-21T10:13:29.666Z,3.50
2023-05-21T10:16:13.291Z,3.60
2023-05-21T10:18:57.625Z,3.35
2023-05-21T10:21:41.984Z,3.00
2023-05-21T10:24:25.956Z,3.67
2023-05-21T10:27:09.168Z,3.80
2023-05-21T10:29:55.436Z,3.53
2023-05-21T10:32:41.265Z,3.38
2023-05-21T10:35:24.488Z,3.13
2023-05-21T10:38:08.670Z,3.70
2023-05-21T10:40:53.741Z,3.60
2023-05-21T10:43:49.717Z,3.70
2023-05-21T10:47:05.253Z,3.65
2023-05-21T10:50:13.184Z,3.50
2023-05-21T10:53:09.943Z,3.95
2023-05-21T10:56:10.181Z,3.97
2023-05-21T10:59:12.476Z,3.97
2023-05-21T11:01:58.710Z,3.78
2023-05-21T11:04:44.271Z,3.67
2023-05-21T11:07:57.280Z,4.35
2023-05-21T11:10:44.396Z,3.20
2023-05-21T11:13:28.673Z,3.15
2023-05-21T11:16:16.502Z,3.65
2023-05-21T11:19:04.433Z,3.35
2023-05-21T11:21:52.169Z,3.38
2023-05-21T11:24:39.037Z,3.35
2023-05-21T11:27:33.492Z,3.75
2023-05-21T11:30:18.404Z,3.47
2023-05-21T11:33:20.326Z,3.20
2023-05-21T11:36:14.278Z,3.63
2023-05-21T11:39:09.723Z,3.60
2023-05-21T11:41:53.887Z,3.00
2023-05-21T11:44:40.381Z,3.05
2023-05-21T11:47:23.278Z,3.30
2023-05-21T11:50:13.235Z,3.08
2023-05-21T11:52:57.818Z,3.50
2023-05-21T11:55:47.308Z,3.00
2023-05-21T11:58:32.598Z,3.38
2023-05-21T12:01:23.311Z,3.15
2023-05-21T12:04:06.935Z,3.40
2023-05-21T12:06:50.768Z,3.00
2023-05-21T12:09:40.124Z,3.30
2023-05-21T12:12:25.581Z,3.38
2023-05-21T12:15:10.270Z,3.50
2023-05-21T12:17:54.074Z,3.28
2023-05-21T12:20:37.408Z,3.10
2023-05-21T12:23:21.746Z,3.47
2023-05-21T12:26:06.344Z,3.00
2023-05-21T12:31:33.023Z,3.20
2023-05-21T12:34:19.257Z,3.00
2023-05-21T12:37:03.259Z,3.80
2023-05-21T12:39:47.248Z,3.20
2023-05-21T12:42:34.795Z,3.40
2023-05-21T12:45:18.908Z,2.80
2023-05-21T12:48:03.186Z,3.60
2023-05-21T12:50:46.277Z,3.10
2023-05-21T12:53:38.283Z,3.15
2023-05-21T12:56:23.268Z,3.03
2023-05-21T12:59:14.562Z,3.03
2023-05-21T13:01:57.526Z,3.05
2023-05-21T13:04:40.498Z,2.80
2023-05-21T13:07:23.734Z,3.20
2023-05-21T13:10:08.410Z,3.08
2023-05-21T13:12:51.292Z,3.30
2023-05-21T13:15:36.032Z,2.72
2023-05-21T13:18:20.842Z,3.10
2023-05-21T13:21:03.851Z,2.65
2023-05-21T13:23:47.123Z,2.45
2023-05-21T13:26:30.458Z,2.90
2023-05-21T13:29:14.869Z,3.30
2023-05-21T13:34:41.829Z,3.03
2023-05-21T13:37:24.802Z,3.33
2023-05-21T13:40:10.953Z,2.88
2023-05-21T13:42:53.892Z,3.22
2023-05-21T13:45:36.808Z,3.03
2023-05-21T13:48:21.105Z,3.25
2023-05-21T13:53:46.870Z,3.10
2023-05-21T13:56:29.772Z,3.20
2023-05-21T13:59:12.725Z,3.67
2023-05-21T14:01:55.701Z,3.30
2023-05-21T14:04:39.989Z,3.35
2023-05-21T14:07:23.026Z,3.07
2023-05-21T14:10:07.151Z,3.45
2023-05-21T14:12:50.019Z,3.22
2023-05-21T14:15:33.381Z,3.30
2023-05-21T14:18:16.810Z,2.75
2023-05-21T14:21:01.153Z,3.20
2023-05-21T14:23:44.323Z,3.40
2023-05-21T14:26:28.098Z,3.15
2023-05-21T14:29:19.641Z,2.92
2023-05-21T14:32:02.587Z,3.45
2023-05-21T14:34:45.583Z,3.10
2023-05-21T14:37:28.443Z,3.20
2023-05-21T14:40:12.086Z,3.17
2023-05-21T14:42:56.108Z,3.17
2023-05-21T14:45:41.081Z,2.90
2023-05-21T14:48:24.108Z,3.65
2023-05-21T14:51:07.078Z,3.28
2023-05-21T14:53:49.986Z,3.05
2023-05-21T14:56:32.906Z,3.13
2023-05-21T14:59:15.822Z,2.90
2023-05-21T15:02:00.356Z,2.90
2023-05-21T15:04:43.194Z,2.60
2023-05-21T15:07:26.056Z,2.90
2023-05-21T15:10:10.557Z,2.83
2023-05-21T15:12:54.447Z,2.80
2023-05-21T15:15:37.467Z,3.42
2023-05-21T15:18:22.188Z,3.13
2023-05-21T15:21:06.280Z,3.80
2023-05-21T15:23:49.140Z,3.33
2023-05-21T15:26:32.205Z,3.50
2023-05-21T15:29:15.101Z,3.85
2023-05-21T15:31:59.871Z,3.67
2023-05-21T15:34:44.433Z,3.72
2023-05-21T15:37:28.225Z,3.67
2023-05-21T15:40:11.729Z,3.40
2023-05-21T15:42:54.599Z,3.50
2023-05-21T15:45:38.684Z,3.50
2023-05-21T15:51:07.340Z,3.30
2023-05-21T15:53:50.194Z,3.55
2023-05-21T15:56:33.169Z,3.38
2023-05-21T15:59:16.090Z,3.38
2023-05-21T16:02:00.245Z,3.33
2023-05-21T16:04:43.933Z,3.60
2023-05-21T16:07:28.235Z,3.42
2023-05-21T16:10:11.697Z,3.78
2023-05-21T16:12:54.504Z,3.65
2023-05-21T16:15:37.742Z,3.50
2023-05-21T16:18:20.974Z,3.75
2023-05-21T16:21:03.890Z,3.72
2023-05-21T16:23:48.139Z,4.20
2023-05-21T16:26:31.088Z,4.47
2023-05-21T16:29:14.018Z,3.67
2023-05-21T16:31:56.921Z,4.25
2023-05-21T16:34:39.842Z,4.00
2023-05-21T16:37:22.733Z,3.95
2023-05-21T16:40:09.179Z,3.85
2023-05-21T16:42:52.669Z,4.25
2023-05-21T16:45:40.532Z,4.00
2023-05-21T16:48:23.530Z,3.83
2023-05-21T16:51:06.498Z,4.18
2023-05-21T16:53:49.385Z,4.20
2023-05-21T16:56:33.932Z,4.47
2023-05-21T16:59:18.332Z,3.92
2023-05-21T17:02:01.323Z,4.00
2023-05-21T17:04:44.937Z,3.85
2023-05-21T17:07:27.889Z,4.22
2023-05-21T17:10:11.578Z,4.78
2023-05-21T17:12:57.269Z,4.00
2023-05-21T17:15:42.692Z,4.03
2023-05-21T17:18:26.031Z,3.72
2023-05-21T17:21:09.051Z,4.53
2023-05-21T17:23:51.964Z,3.55
2023-05-21T17:26:34.930Z,3.40
2023-05-21T17:29:19.310Z,3.58
2023-05-21T17:32:02.953Z,3.50
2023-05-21T17:34:46.290Z,3.60
2023-05-21T17:37:29.631Z,3.72
2023-05-21T17:40:13.335Z,3.22
2023-05-21T17:42:57.286Z,3.22
2023-05-21T17:48:25.012Z,3.13
2023-05-21T17:51:07.999Z,3.22
2023-05-21T17:53:50.866Z,3.55
2023-05-21T17:56:38.694Z,3.40
2023-05-21T17:59:22.300Z,3.38
2023-05-21T18:02:07.303Z,3.60
2023-05-21T18:04:51.000Z,3.10
2023-05-21T18:07:33.870Z,3.33
2023-05-21T18:10:16.954Z,3.40
2023-05-21T18:12:59.824Z,3.40
2023-05-21T18:15:42.688Z,3.10
2023-05-21T18:18:27.328Z,3.60
2023-05-21T18:21:10.486Z,3.53
2023-05-21T18:23:53.326Z,3.42
2023-05-21T18:26:36.304Z,3.30
2023-05-21T18:29:19.204Z,3.35
2023-05-21T18:32:02.118Z,3.28
2023-05-21T18:34:47.721Z,3.22
2023-05-21T18:37:30.755Z,3.25
2023-05-21T18:40:14.729Z,3.20
2023-05-21T18:42:57.758Z,3.60
2023-05-21T18:45:40.790Z,3.85
2023-05-21T18:48:23.831Z,3.83
2023-05-21T18:51:08.216Z,3.45
2023-05-21T18:53:51.308Z,3.47
2023-05-21T18:56:35.207Z,3.30
2023-05-21T18:59:18.122Z,3.75
2023-05-21T19:02:02.029Z,3.87
2023-05-21T19:04:45.164Z,3.80
2023-05-21T19:07:29.436Z,3.65
2023-05-21T19:10:13.289Z,3.42
2023-05-21T19:12:57.325Z,3.28
2023-05-21T19:15:40.264Z,4.13
2023-05-21T19:18:30.089Z,3.60
2023-05-21T19:21:13.054Z,3.70
2023-05-21T19:23:57.369Z,3.60
2023-05-21T19:26:40.239Z,3.75
2023-05-21T19:29:23.353Z,4.20
2023-05-21T19:32:06.922Z,3.70
2023-05-21T19:34:49.780Z,4.10
2023-05-21T19:37:33.109Z,3.95
2023-05-21T19:40:18.345Z,3.67
2023-05-21T19:43:01.343Z,3.72
2023-05-21T19:45:44.531Z,4.18
2023-05-21T19:48:27.430Z,3.88
2023-05-21T19:51:10.388Z,4.03
2023-05-21T19:53:53.289Z,4.00
2023-05-21T19:56:37.484Z,3.65
2023-05-21T19:59:21.374Z,4.07
2023-05-21T20:02:04.310Z,4.27
2023-05-21T20:04:47.369Z,3.67
2023-05-21T20:07:30.521Z,3.47
2023-05-21T20:10:14.376Z,3.50
2023-05-21T20:12:58.598Z,3.85
2023-05-21T20:15:41.550Z,3.95
2023-05-21T20:18:25.048Z,3.50
2023-05-21T20:21:08.858Z,3.67
2023-05-21T20:23:52.268Z,3.67
2023-05-21T20:26:36.513Z,4.22
2023-05-21T20:29:20.779Z,4.22
2023-05-21T20:32:03.784Z,4.07
2023-05-21T20:35:02.182Z,3.63
2023-05-21T20:37:46.988Z,3.55
2023-05-21T20:40:29.835Z,3.35
2023-05-21T20:43:14.962Z,3.38
2023-05-21T20:46:00.471Z,3.90
2023-05-21T20:48:43.639Z,4.10
2023-05-21T20:51:26.963Z,3.58
2023-05-21T20:54:10.675Z,3.50
2023-05-21T20:56:54.889Z,3.72
2023-05-21T20:59:38.381Z,3.58
2023-05-21T21:02:23.006Z,3.60
2023-05-21T21:05:06.696Z,3.58
2023-05-21T21:07:49.611Z,3.53
2023-05-21T21:10:33.771Z,3.38
2023-05-21T21:13:16.699Z,3.10
2023-05-21T21:15:59.617Z,3.25
2023-05-21T21:18:43.987Z,3.45
2023-05-21T21:21:27.406Z,3.63
2023-05-21T21:24:10.274Z,3.65
2023-05-21T21:26:53.127Z,3.17
2023-05-21T21:29:35.990Z,3.17
2023-05-21T21:32:19.436Z,3.33
2023-05-21T21:35:03.768Z,3.35
2023-05-21T21:37:46.598Z,3.20
2023-05-21T21:40:29.448Z,3.47
2023-05-21T21:43:12.331Z,3.30
2023-05-21T21:45:55.201Z,3.40
2023-05-21T21:48:38.052Z,3.58
2023-05-21T21:51:23.594Z,3.55
2023-05-21T21:54:06.792Z,3.45
2023-05-21T21:56:50.091Z,3.90
2023-05-21T21:59:32.965Z,3.55
2023-05-21T22:02:17.897Z,3.22
2023-05-21T22:05:00.925Z,3.20
2023-05-21T22:07:47.017Z,3.20
2023-05-21T22:10:30.129Z,3.20
2023-05-21T22:13:14.365Z,3.10
2023-05-21T22:15:57.414Z,3.15
2023-05-21T22:18:41.935Z,2.95
2023-05-21T22:21:27.376Z,3.03
2023-05-21T22:24:24.217Z,3.20
2023-05-21T22:27:14.140Z,3.10
2023-05-21T22:29:57.030Z,3.20
2023-05-21T22:32:40.141Z,3.05
2023-05-21T22:35:23.128Z,3.47
2023-05-21T22:38:06.345Z,3.50
2023-05-21T22:40:50.600Z,3.33
2023-05-21T22:43:34.604Z,3.55
2023-05-21T22:46:17.568Z,3.80
2023-05-21T22:49:00.660Z,3.40
2023-05-21T22:51:45.015Z,4.22
2023-05-21T22:54:27.934Z,3.72
2023-05-21T22:57:12.148Z,3.42
2023-05-21T22:59:55.005Z,3.60
2023-05-21T23:02:37.862Z,3.88
2023-05-21T23:05:20.869Z,3.35
2023-05-21T23:08:03.872Z,3.67
2023-05-21T23:10:46.822Z,3.63
2023-05-21T23:13:31.086Z,3.97
2023-05-21T23:16:14.660Z,3.95
2023-05-21T23:18:57.601Z,3.70
2023-05-21T23:21:41.215Z,3.70
2023-05-21T23:24:24.318Z,3.50
2023-05-21T23:27:07.178Z,3.75
2023-05-21T23:29:51.415Z,3.40
2023-05-21T23:32:34.279Z,3.53
2023-05-21T23:35:17.490Z,3.65
2023-05-21T23:38:00.442Z,3.55
2023-05-21T23:40:43.382Z,3.90
2023-05-21T23:43:26.229Z,3.75
2023-05-21T23:46:11.524Z,3.50
2023-05-21T23:48:54.463Z,3.47
2023-05-21T23:51:37.318Z,4.15
2023-05-21T23:54:20.243Z,3.63
2023-05-21T23:57:03.140Z,3.47
2023-05-21T23:59:46.146Z,3.65
